Time;durP1;ratioP1;P1;durP2;ratioP2;P2;SDS_P1;SDS_P2;PMS_P1;PMS_P2;Temp;Humidity;BMP_temperature;BMP_pressure;BME280_temperature;BME280_humidity;BME280_pressure;Samples;Min_cycle;Max_cycle;Signal;HPM_P1;HPM_P2
2021/08/10 00:00:25;;;;;;;;;;;;;27.50;101769.00;;;;2107594;28;1038;-60
2021/08/10 00:01:25;;;;;;;;;;;;;27.50;101769.00;;;;2111234;28;806;-61
2021/08/10 00:02:26;;;;;;;;;;;;;27.50;101765.00;;;;2109694;28;958;-61
2021/08/10 00:03:26;;;;;;;;;;;;;27.40;101772.00;;;;2109678;28;980;-60
2021/08/10 00:04:26;;;;;;;;;;;;;27.40;101773.00;;;;2109172;28;999;-61
2021/08/10 00:05:26;;;;;;;;;;;;;27.40;101769.00;;;;2111064;28;2437;-61
2021/08/10 00:06:27;;;;;;;;;;;;;27.40;101761.00;;;;2109380;28;1121;-61
2021/08/10 00:07:27;;;;;;;;;;;;;27.40;101773.00;;;;2108995;28;923;-61
2021/08/10 00:08:27;;;;;;;;;;;;;27.40;101765.00;;;;2110023;28;1307;-61
2021/08/10 00:09:27;;;;;;;;;;;;;27.40;101769.00;;;;2109323;28;1045;-61
2021/08/10 00:10:27;;;;;;;;;;;;;27.40;101772.00;;;;2111230;28;1010;-60
2021/08/10 00:11:27;;;;;;;;;;;;;27.40;101771.00;;;;2108046;28;928;-60
2021/08/10 00:12:28;;;;;;;;;;;;;27.40;101761.00;;;;2108012;28;1074;-60
2021/08/10 00:13:28;;;;;;;;;;;;;27.40;101770.00;;;;2110503;28;1101;-60
2021/08/10 00:14:28;;;;;;;;;;;;;27.40;101769.00;;;;2109852;28;923;-60
2021/08/10 00:15:28;;;;;;;;;;;;;27.40;101769.00;;;;2110294;28;1022;-61
2021/08/10 00:16:29;;;;;;;;;;;;;27.40;101768.00;;;;2109212;28;867;-60
2021/08/10 00:17:29;;;;;;;;;;;;;27.40;101770.00;;;;2110380;28;902;-60
2021/08/10 00:18:30;;;;;;;;;;;;;27.40;101771.00;;;;2112707;28;1248;-60
2021/08/10 00:19:30;;;;;;;;;;;;;27.40;101760.00;;;;2111973;28;883;-61
2021/08/10 00:20:30;;;;;;;;;;;;;27.40;101767.00;;;;2108917;28;985;-61
2021/08/10 00:21:30;;;;;;;;;;;;;27.40;101777.00;;;;2111871;28;861;-60
2021/08/10 00:22:30;;;;;;;;;;;;;27.30;101777.00;;;;2108027;28;856;-60
2021/08/10 00:23:31;;;;;;;;;;;;;27.30;101774.00;;;;2109908;28;1032;-60
2021/08/10 00:24:31;;;;;;;;;;;;;27.30;101771.00;;;;2108180;28;1902;-60
2021/08/10 00:25:31;;;;;;;;;;;;;27.30;101775.00;;;;2111098;28;1044;-61
2021/08/10 00:26:31;;;;;;;;;;;;;27.30;101769.00;;;;2109465;28;1200;-61
2021/08/10 00:27:31;;;;;;;;;;;;;27.30;101774.00;;;;2112384;28;1052;-61
2021/08/10 00:28:32;;;;;;;;;;;;;27.30;101774.00;;;;2110259;28;1404;-60
2021/08/10 00:29:32;;;;;;;;;;;;;27.40;101777.00;;;;2109371;28;995;-60
2021/08/10 00:30:32;;;;;;;;;;;;;27.40;101769.00;;;;2107968;28;848;-61
2021/08/10 00:31:32;;;;;;;;;;;;;27.30;101763.00;;;;2111660;28;1161;-60
2021/08/10 00:32:32;;;;;;;;;;;;;27.30;101765.00;;;;2111291;28;1256;-60
2021/08/10 00:33:32;;;;;;;;;;;;;27.30;101773.00;;;;2110333;28;1580;-61
2021/08/10 00:34:33;;;;;;;;;;;;;27.30;101774.00;;;;2110060;28;1425;-60
2021/08/10 00:35:33;;;;;;;;;;;;;27.30;101768.00;;;;2109859;28;1310;-60
2021/08/10 00:36:35;;;;;;;;;;;;;27.30;101769.00;;;;2108441;28;1130;-60
2021/08/10 00:37:35;;;;;;;;;;;;;27.30;101773.00;;;;2107466;28;1094;-61
2021/08/10 00:38:35;;;;;;;;;;;;;27.30;101777.00;;;;2105759;28;1288;-61
2021/08/10 00:39:35;;;;;;;;;;;;;27.30;101775.00;;;;2112417;28;974;-60
2021/08/10 00:40:36;;;;;;;;;;;;;27.30;101773.00;;;;2108007;28;1258;-61
2021/08/10 00:41:36;;;;;;;;;;;;;27.30;101769.00;;;;2107620;28;1014;-61
2021/08/10 00:42:36;;;;;;;;;;;;;27.20;101776.00;;;;2107882;28;944;-60
2021/08/10 00:43:37;;;;;;;;;;;;;27.30;101778.00;;;;2108191;28;1031;-61
2021/08/10 00:44:37;;;;;;;;;;;;;27.20;101768.00;;;;2108269;28;1922;-60
2021/08/10 00:45:37;;;;;;;;;;;;;27.20;101777.00;;;;2112893;28;1011;-60
2021/08/10 00:46:37;;;;;;;;;;;;;27.20;101775.00;;;;2112134;28;959;-61
2021/08/10 00:47:38;;;;;;;;;;;;;27.20;101772.00;;;;2112763;28;1149;-60
2021/08/10 00:48:38;;;;;;;;;;;;;27.20;101782.00;;;;2111782;28;1248;-61
2021/08/10 00:49:38;;;;;;;;;;;;;27.20;101776.00;;;;2109967;28;956;-60
2021/08/10 00:50:38;;;;;;;;;;;;;27.20;101773.00;;;;2107897;28;985;-61
2021/08/10 00:51:38;;;;;;;;;;;;;27.30;101775.00;;;;2109849;28;987;-60
2021/08/10 00:52:39;;;;;;;;;;;;;27.20;101775.00;;;;2107726;28;970;-62
2021/08/10 00:53:39;;;;;;;;;;;;;27.20;101773.00;;;;2108902;28;853;-60
2021/08/10 00:54:39;;;;;;;;;;;;;27.20;101769.00;;;;2108758;28;860;-60
2021/08/10 00:55:39;;;;;;;;;;;;;27.20;101771.00;;;;2106620;28;994;-60
2021/08/10 00:56:40;;;;;;;;;;;;;27.20;101773.00;;;;2111170;28;1024;-60
2021/08/10 00:57:40;;;;;;;;;;;;;27.20;101766.00;;;;2110343;28;841;-60
2021/08/10 00:58:40;;;;;;;;;;;;;27.20;101776.00;;;;2112113;28;1278;-61
2021/08/10 00:59:40;;;;;;;;;;;;;27.20;101776.00;;;;2110237;28;959;-61
2021/08/10 01:00:41;;;;;;;;;;;;;27.20;101762.00;;;;2111822;28;876;-61
2021/08/10 01:01:41;;;;;;;;;;;;;27.20;101769.00;;;;2102838;28;946;-61
2021/08/10 01:02:41;;;;;;;;;;;;;27.20;101769.00;;;;2111310;28;928;-60
2021/08/10 01:03:41;;;;;;;;;;;;;27.20;101769.00;;;;2111971;28;1014;-60
2021/08/10 01:04:41;;;;;;;;;;;;;27.20;101769.00;;;;2111709;28;1966;-60
2021/08/10 01:05:46;;;;;;;;;;;;;27.20;101771.00;;;;2108615;28;2495;-61
2021/08/10 01:07:04;;;;;;;;;;;;;27.20;101767.00;;;;2111207;28;1035;-60
2021/08/10 01:08:09;;;;;;;;;;;;;27.20;101766.00;;;;2107714;28;905;-60
2021/08/10 01:09:10;;;;;;;;;;;;;27.20;101765.00;;;;2106929;28;1272;-61
2021/08/10 01:10:11;;;;;;;;;;;;;27.20;101758.00;;;;2106954;28;1094;-60
2021/08/10 01:11:14;;;;;;;;;;;;;27.10;101771.00;;;;2100960;28;1093;-60
2021/08/10 01:12:16;;;;;;;;;;;;;27.10;101771.00;;;;2100769;28;1141;-60
2021/08/10 01:13:22;;;;;;;;;;;;;27.10;101770.00;;;;2096192;28;1190;-60
2021/08/10 01:14:22;;;;;;;;;;;;;27.10;101767.00;;;;2100086;28;1026;-60
2021/08/10 01:15:22;;;;;;;;;;;;;27.10;101766.00;;;;2114010;28;990;-61
2021/08/10 01:16:30;;;;;;;;;;;;;27.10;101763.00;;;;2112077;28;975;-60
2021/08/10 01:17:35;;;;;;;;;;;;;27.10;101762.00;;;;2110673;28;1021;-60
2021/08/10 01:18:36;;;;;;;;;;;;;27.10;101763.00;;;;2100742;28;1347;-60
2021/08/10 01:19:46;;;;;;;;;;;;;27.10;101774.00;;;;2102347;28;990;-60
2021/08/10 01:21:05;;;;;;;;;;;;;27.10;101773.00;;;;2112841;28;1000;-61
2021/08/10 01:22:05;;;;;;;;;;;;;27.10;101773.00;;;;2113513;28;985;-61
2021/08/10 01:23:06;;;;;;;;;;;;;27.10;101764.00;;;;2112770;28;1015;-61
2021/08/10 01:24:23;;;;;;;;;;;;;27.10;101772.00;;;;2101598;28;866;-60
2021/08/10 01:25:30;;;;;;;;;;;;;27.10;101773.00;;;;2106394;28;1902;-61
2021/08/10 01:26:36;;;;;;;;;;;;;27.10;101769.00;;;;2103759;28;925;-60
2021/08/10 01:27:48;;;;;;;;;;;;;27.10;101765.00;;;;2094364;28;1210;-60
2021/08/10 01:28:52;;;;;;;;;;;;;27.10;101764.00;;;;2105683;28;1290;-60
2021/08/10 01:30:01;;;;;;;;;;;;;27.10;101764.00;;;;2111343;28;884;-60
2021/08/10 01:31:04;;;;;;;;;;;;;27.10;101759.00;;;;2112258;28;1043;-60
2021/08/10 01:32:05;;;;;;;;;;;;;27.10;101759.00;;;;2113415;28;1049;-60
2021/08/10 01:33:05;;;;;;;;;;;;;27.10;101758.00;;;;2110423;28;865;-60
2021/08/10 01:34:21;;;;;;;;;;;;;27.10;101761.00;;;;2101713;28;1392;-60
2021/08/10 01:35:21;;;;;;;;;;;;;27.10;101758.00;;;;2108843;28;905;-60
2021/08/10 01:36:21;;;;;;;;;;;;;27.10;101763.00;;;;2108491;28;962;-60
2021/08/10 01:37:22;;;;;;;;;;;;;27.10;101749.00;;;;2109022;28;909;-60
2021/08/10 01:38:22;;;;;;;;;;;;;27.10;101756.00;;;;2109712;28;1316;-61
2021/08/10 01:39:24;;;;;;;;;;;;;27.10;101760.00;;;;2107733;28;1047;-60
2021/08/10 01:40:24;;;;;;;;;;;;;27.10;101762.00;;;;2103340;28;1038;-60
2021/08/10 01:41:25;;;;;;;;;;;;;27.10;101764.00;;;;2110760;23;1989;-63
2021/08/10 01:42:25;;;;;;;;;;;;;27.10;101759.00;;;;2082221;28;1752;-63
2021/08/10 01:43:25;;;;;;;;;;;;;27.10;101763.00;;;;2082774;28;944;-63
2021/08/10 01:44:26;;;;;;;;;;;;;27.10;101749.00;;;;2076840;28;1014;-62
2021/08/10 01:45:26;;;;;;;;;;;;;27.10;101760.00;;;;2081107;28;1974;-63
2021/08/10 01:46:26;;;;;;;;;;;;;27.10;101761.00;;;;2080579;28;943;-63
2021/08/10 01:47:27;;;;;;;;;;;;;27.00;101762.00;;;;2075000;28;896;-63
2021/08/10 01:48:27;;;;;;;;;;;;;27.10;101752.00;;;;2077943;28;1299;-63
2021/08/10 01:49:28;;;;;;;;;;;;;27.00;101754.00;;;;2079758;28;1021;-62
2021/08/10 01:50:28;;;;;;;;;;;;;27.00;101759.00;;;;2074816;28;1208;-62
2021/08/10 01:51:28;;;;;;;;;;;;;27.10;101759.00;;;;2077475;28;1038;-63
2021/08/10 01:52:28;;;;;;;;;;;;;27.10;101749.00;;;;2085379;28;1280;-63
2021/08/10 01:53:29;;;;;;;;;;;;;27.10;101750.00;;;;2072668;28;1054;-63
2021/08/10 01:54:29;;;;;;;;;;;;;27.10;101749.00;;;;2078399;28;1055;-66
2021/08/10 01:55:29;;;;;;;;;;;;;27.10;101757.00;;;;2072652;28;1109;-63
2021/08/10 01:56:30;;;;;;;;;;;;;27.10;101748.00;;;;2071778;28;1051;-63
2021/08/10 01:57:30;;;;;;;;;;;;;27.00;101754.00;;;;2080979;28;824;-63
2021/08/10 01:58:30;;;;;;;;;;;;;27.10;101752.00;;;;2088816;28;1267;-63
2021/08/10 01:59:30;;;;;;;;;;;;;27.00;101751.00;;;;2082392;28;1098;-63
2021/08/10 02:00:31;;;;;;;;;;;;;27.00;101749.00;;;;2086238;28;1062;-63
2021/08/10 02:01:32;;;;;;;;;;;;;27.00;101746.00;;;;2088048;28;1731;-63
2021/08/10 02:02:32;;;;;;;;;;;;;27.00;101749.00;;;;2078761;28;836;-63
2021/08/10 02:03:32;;;;;;;;;;;;;27.00;101753.00;;;;2085277;28;1046;-63
2021/08/10 02:04:32;;;;;;;;;;;;;27.00;101752.00;;;;2087168;28;1946;-62
2021/08/10 02:05:33;;;;;;;;;;;;;27.00;101748.00;;;;2088349;28;1136;-64
2021/08/10 02:06:33;;;;;;;;;;;;;27.00;101750.00;;;;2084499;28;1284;-64
2021/08/10 02:07:33;;;;;;;;;;;;;27.00;101745.00;;;;2066782;28;1282;-63
2021/08/10 02:08:33;;;;;;;;;;;;;27.00;101749.00;;;;2068939;28;1269;-63
2021/08/10 02:09:34;;;;;;;;;;;;;27.00;101747.00;;;;2074430;28;1200;-62
2021/08/10 02:10:34;;;;;;;;;;;;;27.00;101756.00;;;;2080729;28;812;-62
2021/08/10 02:11:34;;;;;;;;;;;;;27.00;101750.00;;;;2077493;28;1177;-62
2021/08/10 02:12:35;;;;;;;;;;;;;27.00;101763.00;;;;2074063;28;808;-62
2021/08/10 02:13:35;;;;;;;;;;;;;27.00;101762.00;;;;2074200;28;1284;-62
2021/08/10 02:14:35;;;;;;;;;;;;;27.10;101768.00;;;;2058070;28;1002;-62
2021/08/10 02:15:36;;;;;;;;;;;;;27.00;101765.00;;;;2069238;28;1523;-63
2021/08/10 02:16:36;;;;;;;;;;;;;27.00;101766.00;;;;2074282;28;1074;-62
2021/08/10 02:17:36;;;;;;;;;;;;;27.00;101758.00;;;;2065190;28;1066;-62
2021/08/10 02:18:37;;;;;;;;;;;;;27.00;101762.00;;;;2073981;28;1268;-62
2021/08/10 02:19:37;;;;;;;;;;;;;27.00;101768.00;;;;2076454;28;951;-63
2021/08/10 02:20:37;;;;;;;;;;;;;27.00;101766.00;;;;2089130;28;1000;-63
2021/08/10 02:21:38;;;;;;;;;;;;;27.00;101761.00;;;;2077715;28;1215;-63
2021/08/10 02:22:38;;;;;;;;;;;;;27.00;101769.00;;;;2055687;28;2189;-62
2021/08/10 02:23:39;;;;;;;;;;;;;27.00;101770.00;;;;2066089;28;1023;-62
2021/08/10 02:24:53;;;;;;;;;;;;;26.90;101774.00;;;;2073911;28;1918;-62
2021/08/10 02:25:53;;;;;;;;;;;;;26.90;101768.00;;;;2073959;28;1199;-61
2021/08/10 02:26:58;;;;;;;;;;;;;26.90;101770.00;;;;2073931;28;998;-62
2021/08/10 02:27:58;;;;;;;;;;;;;26.90;101767.00;;;;2081907;28;1067;-62
2021/08/10 02:28:59;;;;;;;;;;;;;26.90;101768.00;;;;2082264;28;1304;-62
2021/08/10 02:30:00;;;;;;;;;;;;;26.90;101767.00;;;;2087525;28;1058;-62
2021/08/10 02:31:00;;;;;;;;;;;;;26.90;101765.00;;;;2072468;28;1094;-62
2021/08/10 02:32:00;;;;;;;;;;;;;26.90;101754.00;;;;2074175;28;1005;-62
2021/08/10 02:33:05;;;;;;;;;;;;;26.90;101758.00;;;;2073313;28;934;-62
2021/08/10 02:34:06;;;;;;;;;;;;;26.90;101759.00;;;;2073168;28;931;-63
2021/08/10 02:35:06;;;;;;;;;;;;;26.90;101760.00;;;;2072861;28;1021;-63
2021/08/10 02:36:06;;;;;;;;;;;;;26.90;101764.00;;;;2066792;28;1309;-62
2021/08/10 02:37:07;;;;;;;;;;;;;26.90;101767.00;;;;2071975;28;1037;-62
2021/08/10 02:38:08;;;;;;;;;;;;;26.90;101769.00;;;;2072399;28;962;-62
2021/08/10 02:39:08;;;;;;;;;;;;;26.90;101767.00;;;;2073610;28;1342;-63
2021/08/10 02:40:09;;;;;;;;;;;;;26.90;101769.00;;;;2075950;28;1047;-63
2021/08/10 02:41:09;;;;;;;;;;;;;26.80;101757.00;;;;2079477;28;1012;-62
2021/08/10 02:42:09;;;;;;;;;;;;;26.80;101758.00;;;;2069497;28;1052;-62
2021/08/10 02:43:09;;;;;;;;;;;;;26.80;101755.00;;;;2070829;28;924;-62
2021/08/10 02:44:09;;;;;;;;;;;;;26.80;101758.00;;;;2073867;28;958;-62
2021/08/10 02:45:10;;;;;;;;;;;;;26.80;101755.00;;;;2073648;28;1906;-62
2021/08/10 02:46:10;;;;;;;;;;;;;26.80;101755.00;;;;2082113;28;958;-63
2021/08/10 02:47:11;;;;;;;;;;;;;26.80;101752.00;;;;2079066;28;988;-62
2021/08/10 02:48:11;;;;;;;;;;;;;26.80;101746.00;;;;2085432;28;1067;-62
2021/08/10 02:49:11;;;;;;;;;;;;;26.80;101756.00;;;;2087186;28;947;-62
2021/08/10 02:50:11;;;;;;;;;;;;;26.90;101755.00;;;;2081948;28;892;-62
2021/08/10 02:51:12;;;;;;;;;;;;;26.80;101759.00;;;;2082027;28;948;-62
2021/08/10 02:52:12;;;;;;;;;;;;;26.80;101756.00;;;;2076738;28;1107;-62
2021/08/10 02:53:13;;;;;;;;;;;;;26.80;101755.00;;;;2076655;28;975;-63
2021/08/10 02:54:13;;;;;;;;;;;;;26.80;101760.00;;;;2080775;28;1075;-62
2021/08/10 02:55:13;;;;;;;;;;;;;26.80;101756.00;;;;2081810;28;1008;-62
2021/08/10 02:56:18;;;;;;;;;;;;;26.80;101760.00;;;;2081552;28;942;-62
2021/08/10 02:57:27;;;;;;;;;;;;;26.80;101753.00;;;;2070044;28;997;-63
2021/08/10 02:58:29;;;;;;;;;;;;;26.80;101749.00;;;;2080151;28;1282;-62
2021/08/10 02:59:40;;;;;;;;;;;;;26.80;101749.00;;;;2073209;28;1306;-62
2021/08/10 03:00:52;;;;;;;;;;;;;26.80;101756.00;;;;2070927;28;1036;-62
2021/08/10 03:01:53;;;;;;;;;;;;;26.80;101753.00;;;;2079041;28;1070;-62
2021/08/10 03:02:56;;;;;;;;;;;;;26.80;101748.00;;;;2086680;28;1362;-63
2021/08/10 03:03:56;;;;;;;;;;;;;26.80;101749.00;;;;2065612;28;1007;-62
2021/08/10 03:04:57;;;;;;;;;;;;;26.80;101754.00;;;;2067814;28;1906;-63
2021/08/10 03:05:58;;;;;;;;;;;;;26.80;101756.00;;;;2073723;28;1320;-63
2021/08/10 03:06:58;;;;;;;;;;;;;26.80;101753.00;;;;2064541;28;900;-63
2021/08/10 03:07:58;;;;;;;;;;;;;26.80;101748.00;;;;2069358;28;1022;-63
2021/08/10 03:08:59;;;;;;;;;;;;;26.80;101751.00;;;;2067629;28;1317;-62
2021/08/10 03:09:59;;;;;;;;;;;;;26.80;101759.00;;;;2073358;28;917;-63
2021/08/10 03:11:00;;;;;;;;;;;;;26.80;101759.00;;;;2072503;28;1074;-63
2021/08/10 03:12:00;;;;;;;;;;;;;26.80;101757.00;;;;2081469;28;1049;-62
2021/08/10 03:13:01;;;;;;;;;;;;;26.80;101755.00;;;;2076438;28;971;-63
2021/08/10 03:14:02;;;;;;;;;;;;;26.80;101751.00;;;;2073491;28;1077;-62
2021/08/10 03:15:02;;;;;;;;;;;;;26.80;101758.00;;;;2068596;28;1219;-62
2021/08/10 03:16:02;;;;;;;;;;;;;26.80;101758.00;;;;2073703;28;1051;-62
2021/08/10 03:17:03;;;;;;;;;;;;;26.80;101754.00;;;;2081405;28;1296;-62
2021/08/10 03:18:04;;;;;;;;;;;;;26.80;101755.00;;;;2081935;28;1220;-63
2021/08/10 03:19:04;;;;;;;;;;;;;26.80;101754.00;;;;2079277;28;1231;-62
2021/08/10 03:20:05;;;;;;;;;;;;;26.80;101756.00;;;;2086099;28;1089;-61
2021/08/10 03:21:05;;;;;;;;;;;;;26.80;101757.00;;;;2084606;28;1390;-62
2021/08/10 03:22:05;;;;;;;;;;;;;26.80;101752.00;;;;2081735;28;1047;-63
2021/08/10 03:23:05;;;;;;;;;;;;;26.80;101754.00;;;;2064669;28;1125;-62
2021/08/10 03:24:06;;;;;;;;;;;;;26.80;101756.00;;;;2073077;28;1060;-62
2021/08/10 03:25:06;;;;;;;;;;;;;26.80;101748.00;;;;2080992;28;1969;-62
2021/08/10 03:26:07;;;;;;;;;;;;;26.70;101749.00;;;;2078492;28;974;-62
2021/08/10 03:27:07;;;;;;;;;;;;;26.80;101760.00;;;;2075436;28;1071;-62
2021/08/10 03:28:07;;;;;;;;;;;;;26.70;101744.00;;;;2081490;28;924;-62
2021/08/10 03:29:07;;;;;;;;;;;;;26.70;101748.00;;;;2066625;28;1320;-62
2021/08/10 03:30:08;;;;;;;;;;;;;26.80;101751.00;;;;2073068;28;1077;-62
2021/08/10 03:31:09;;;;;;;;;;;;;26.70;101745.00;;;;2075938;28;941;-62
2021/08/10 03:32:09;;;;;;;;;;;;;26.70;101748.00;;;;2073388;28;1226;-62
2021/08/10 03:33:09;;;;;;;;;;;;;26.70;101754.00;;;;2073357;28;1017;-62
2021/08/10 03:34:09;;;;;;;;;;;;;26.70;101760.00;;;;2076038;28;1117;-62
2021/08/10 03:35:09;;;;;;;;;;;;;26.70;101744.00;;;;2076012;28;987;-62
2021/08/10 03:36:10;;;;;;;;;;;;;26.70;101744.00;;;;2081210;28;1387;-62
2021/08/10 03:37:10;;;;;;;;;;;;;26.70;101745.00;;;;2077307;28;1309;-63
2021/08/10 03:38:10;;;;;;;;;;;;;26.70;101752.00;;;;2073550;28;1111;-62
2021/08/10 03:39:11;;;;;;;;;;;;;26.70;101742.00;;;;2072794;28;1237;-63
2021/08/10 03:40:11;;;;;;;;;;;;;26.70;101743.00;;;;2077742;28;1013;-63
2021/08/10 03:41:11;;;;;;;;;;;;;26.70;101745.00;;;;2076074;28;1272;-62
2021/08/10 03:42:12;;;;;;;;;;;;;26.70;101753.00;;;;2068734;28;913;-63
2021/08/10 03:43:12;;;;;;;;;;;;;26.70;101758.00;;;;2069882;28;1021;-64
2021/08/10 03:44:13;;;;;;;;;;;;;26.70;101748.00;;;;2072056;28;2986;-62
2021/08/10 03:45:13;;;;;;;;;;;;;26.70;101746.00;;;;2072729;28;1966;-62
2021/08/10 03:46:13;;;;;;;;;;;;;26.70;101744.00;;;;2071927;28;1007;-62
2021/08/10 03:47:14;;;;;;;;;;;;;26.70;101750.00;;;;2077172;28;1055;-62
2021/08/10 03:48:15;;;;;;;;;;;;;26.70;101741.00;;;;2076742;28;1295;-62
2021/08/10 03:49:16;;;;;;;;;;;;;26.70;101745.00;;;;2075988;28;1126;-62
2021/08/10 03:50:16;;;;;;;;;;;;;26.70;101741.00;;;;2072960;28;1023;-62
2021/08/10 03:51:16;;;;;;;;;;;;;26.70;101740.00;;;;2073213;28;908;-62
2021/08/10 03:52:16;;;;;;;;;;;;;26.70;101729.00;;;;2073009;28;1082;-63
2021/08/10 03:53:18;;;;;;;;;;;;;26.70;101739.00;;;;2073077;28;884;-63
2021/08/10 03:54:18;;;;;;;;;;;;;26.70;101735.00;;;;2072766;28;988;-63
2021/08/10 03:55:19;;;;;;;;;;;;;26.70;101740.00;;;;2070012;28;1134;-62
2021/08/10 03:56:21;;;;;;;;;;;;;26.60;101733.00;;;;2072707;28;1104;-61
2021/08/10 03:57:21;;;;;;;;;;;;;26.60;101738.00;;;;2073372;28;1045;-62
2021/08/10 03:58:22;;;;;;;;;;;;;26.60;101737.00;;;;2077238;28;1229;-62
2021/08/10 03:59:22;;;;;;;;;;;;;26.60;101731.00;;;;2076549;28;1050;-62
2021/08/10 04:00:22;;;;;;;;;;;;;26.60;101735.00;;;;2072647;28;967;-62
2021/08/10 04:01:23;;;;;;;;;;;;;26.60;101739.00;;;;2064596;28;1082;-62
2021/08/10 04:02:23;;;;;;;;;;;;;26.60;101744.00;;;;2064946;28;1162;-63
2021/08/10 04:03:24;;;;;;;;;;;;;26.60;101738.00;;;;2076591;28;1186;-62
2021/08/10 04:04:24;;;;;;;;;;;;;26.60;101746.00;;;;2077597;28;1274;-63
2021/08/10 04:05:24;;;;;;;;;;;;;26.60;101745.00;;;;2064820;28;1906;-61
2021/08/10 04:06:25;;;;;;;;;;;;;26.60;101746.00;;;;2056655;28;966;-62
2021/08/10 04:07:27;;;;;;;;;;;;;26.60;101740.00;;;;2065000;28;1090;-63
2021/08/10 04:08:28;;;;;;;;;;;;;26.60;101744.00;;;;2081430;28;1277;-63
2021/08/10 04:09:29;;;;;;;;;;;;;26.60;101748.00;;;;2085166;28;1473;-63
2021/08/10 04:10:29;;;;;;;;;;;;;26.60;101742.00;;;;2077345;28;1057;-63
2021/08/10 04:11:29;;;;;;;;;;;;;26.60;101737.00;;;;2068979;28;1208;-63
2021/08/10 04:12:29;;;;;;;;;;;;;26.60;101745.00;;;;2086071;28;1048;-62
2021/08/10 04:13:30;;;;;;;;;;;;;26.60;101737.00;;;;2084167;28;1180;-63
2021/08/10 04:14:30;;;;;;;;;;;;;26.60;101745.00;;;;2076250;28;1239;-63
2021/08/10 04:15:31;;;;;;;;;;;;;26.60;101733.00;;;;2064655;28;979;-62
2021/08/10 04:16:31;;;;;;;;;;;;;26.60;101739.00;;;;2072847;28;1021;-62
2021/08/10 04:17:31;;;;;;;;;;;;;26.60;101737.00;;;;2072251;28;1380;-62
2021/08/10 04:18:33;;;;;;;;;;;;;26.60;101742.00;;;;2072633;28;1339;-63
2021/08/10 04:19:34;;;;;;;;;;;;;26.60;101743.00;;;;2072385;28;1190;-62
2021/08/10 04:20:34;;;;;;;;;;;;;26.60;101745.00;;;;2081063;28;1002;-64
2021/08/10 04:21:35;;;;;;;;;;;;;26.50;101735.00;;;;2076854;28;1098;-63
2021/08/10 04:22:35;;;;;;;;;;;;;26.60;101736.00;;;;2081143;28;980;-63
2021/08/10 04:23:35;;;;;;;;;;;;;26.60;101748.00;;;;2088890;28;995;-62
2021/08/10 04:24:35;;;;;;;;;;;;;26.60;101743.00;;;;2078978;28;1118;-62
2021/08/10 04:25:35;;;;;;;;;;;;;26.60;101740.00;;;;2076639;28;1953;-63
2021/08/10 04:26:36;;;;;;;;;;;;;26.60;101743.00;;;;2076309;28;1262;-62
2021/08/10 04:27:36;;;;;;;;;;;;;26.60;101726.00;;;;2076264;28;1173;-62
2021/08/10 04:28:36;;;;;;;;;;;;;26.60;101733.00;;;;2070941;28;1338;-62
2021/08/10 04:29:37;;;;;;;;;;;;;26.60;101736.00;;;;2067826;28;1201;-62
2021/08/10 04:30:37;;;;;;;;;;;;;26.50;101733.00;;;;2077387;28;1059;-63
2021/08/10 04:31:37;;;;;;;;;;;;;26.50;101735.00;;;;2081153;28;1060;-62
2021/08/10 04:32:37;;;;;;;;;;;;;26.50;101744.00;;;;2076569;28;1080;-62
2021/08/10 04:33:38;;;;;;;;;;;;;26.50;101733.00;;;;2077633;28;998;-62
2021/08/10 04:34:38;;;;;;;;;;;;;26.50;101739.00;;;;2084764;28;997;-62
2021/08/10 04:35:38;;;;;;;;;;;;;26.50;101742.00;;;;2083547;28;1027;-62
2021/08/10 04:36:39;;;;;;;;;;;;;26.50;101739.00;;;;2078539;28;1066;-62
2021/08/10 04:37:39;;;;;;;;;;;;;26.50;101739.00;;;;2089106;28;1314;-63
2021/08/10 04:38:39;;;;;;;;;;;;;26.50;101743.00;;;;2089270;28;1342;-62
2021/08/10 04:39:39;;;;;;;;;;;;;26.60;101745.00;;;;2076688;28;1038;-61
2021/08/10 04:40:39;;;;;;;;;;;;;26.50;101738.00;;;;2078495;28;924;-61
2021/08/10 04:41:40;;;;;;;;;;;;;26.60;101739.00;;;;2074539;28;955;-62
2021/08/10 04:42:40;;;;;;;;;;;;;26.50;101739.00;;;;2076343;28;1039;-62
2021/08/10 04:43:40;;;;;;;;;;;;;26.50;101735.00;;;;2076816;28;2872;-62
2021/08/10 04:44:40;;;;;;;;;;;;;26.50;101731.00;;;;2077386;28;1971;-62
2021/08/10 04:45:40;;;;;;;;;;;;;26.50;101733.00;;;;2085183;28;1233;-62
2021/08/10 04:46:41;;;;;;;;;;;;;26.50;101736.00;;;;2075454;28;1491;-62
2021/08/10 04:47:41;;;;;;;;;;;;;26.50;101732.00;;;;2075469;28;1144;-62
2021/08/10 04:48:41;;;;;;;;;;;;;26.50;101739.00;;;;2084579;28;1404;-62
2021/08/10 04:49:41;;;;;;;;;;;;;26.50;101736.00;;;;2078773;28;1057;-62
2021/08/10 04:50:41;;;;;;;;;;;;;26.50;101731.00;;;;2079654;28;1342;-62
2021/08/10 04:51:42;;;;;;;;;;;;;26.50;101734.00;;;;2082917;28;1100;-62
2021/08/10 04:52:42;;;;;;;;;;;;;26.50;101734.00;;;;2074372;28;1048;-62
2021/08/10 04:53:42;;;;;;;;;;;;;26.50;101734.00;;;;2077455;28;1019;-62
2021/08/10 04:54:43;;;;;;;;;;;;;26.50;101734.00;;;;2085561;28;1069;-63
2021/08/10 04:55:43;;;;;;;;;;;;;26.50;101732.00;;;;2087575;28;1277;-62
2021/08/10 04:56:43;;;;;;;;;;;;;26.50;101730.00;;;;2080381;28;1178;-62
2021/08/10 04:57:43;;;;;;;;;;;;;26.50;101732.00;;;;2078350;28;1364;-62
2021/08/10 04:58:43;;;;;;;;;;;;;26.40;101738.00;;;;2077693;28;1309;-63
2021/08/10 04:59:43;;;;;;;;;;;;;26.40;101736.00;;;;2077555;28;1358;-62
2021/08/10 05:00:46;;;;;;;;;;;;;26.40;101738.00;;;;2080737;28;1334;-62
2021/08/10 05:01:47;;;;;;;;;;;;;26.40;101738.00;;;;2080389;28;921;-63
2021/08/10 05:02:47;;;;;;;;;;;;;26.40;101736.00;;;;2079626;28;1081;-62
2021/08/10 05:03:47;;;;;;;;;;;;;26.40;101737.00;;;;2078994;28;1031;-62
2021/08/10 05:04:48;;;;;;;;;;;;;26.40;101744.00;;;;2085323;28;1965;-62
2021/08/10 05:05:51;;;;;;;;;;;;;26.40;101737.00;;;;2076860;28;1235;-62
2021/08/10 05:06:53;;;;;;;;;;;;;26.40;101738.00;;;;2073843;28;930;-63
2021/08/10 05:07:53;;;;;;;;;;;;;26.40;101736.00;;;;2083098;28;1043;-63
2021/08/10 05:08:54;;;;;;;;;;;;;26.40;101737.00;;;;2087038;28;1357;-63
2021/08/10 05:09:54;;;;;;;;;;;;;26.40;101728.00;;;;2082187;28;1078;-63
2021/08/10 05:10:56;;;;;;;;;;;;;26.40;101733.00;;;;2078677;28;954;-63
2021/08/10 05:11:57;;;;;;;;;;;;;26.40;101732.00;;;;2079835;28;985;-62
2021/08/10 05:12:57;;;;;;;;;;;;;26.40;101725.00;;;;2085211;28;1072;-62
2021/08/10 05:13:57;;;;;;;;;;;;;26.40;101725.00;;;;2086428;28;1022;-62
2021/08/10 05:14:57;;;;;;;;;;;;;26.40;101728.00;;;;2080300;28;922;-63
2021/08/10 05:15:57;;;;;;;;;;;;;26.40;101724.00;;;;2088147;28;1646;-63
2021/08/10 05:16:58;;;;;;;;;;;;;26.50;101727.00;;;;2086720;28;1491;-63
2021/08/10 05:17:58;;;;;;;;;;;;;26.50;101729.00;;;;2082190;28;1408;-63
2021/08/10 05:18:58;;;;;;;;;;;;;26.50;101732.00;;;;2079229;28;1268;-63
2021/08/10 05:19:58;;;;;;;;;;;;;26.50;101728.00;;;;2071054;28;1713;-63
2021/08/10 05:20:58;;;;;;;;;;;;;26.50;101718.00;;;;2077761;28;1194;-63
2021/08/10 05:21:58;;;;;;;;;;;;;26.50;101720.00;;;;2077378;28;997;-62
2021/08/10 05:22:59;;;;;;;;;;;;;26.50;101727.00;;;;2078721;28;1054;-63
2021/08/10 05:23:59;;;;;;;;;;;;;26.50;101728.00;;;;2077411;28;947;-61
2021/08/10 05:24:59;;;;;;;;;;;;;26.50;101727.00;;;;2088950;28;1902;-62
2021/08/10 05:25:59;;;;;;;;;;;;;26.50;101727.00;;;;2088177;28;1021;-62
2021/08/10 05:27:00;;;;;;;;;;;;;26.50;101727.00;;;;2074048;28;1320;-63
2021/08/10 05:28:00;;;;;;;;;;;;;26.50;101719.00;;;;2073080;28;1159;-63
2021/08/10 05:29:00;;;;;;;;;;;;;26.50;101712.00;;;;2076250;28;1565;-64
2021/08/10 05:30:00;;;;;;;;;;;;;26.40;101725.00;;;;2068219;28;1577;-62
2021/08/10 05:31:00;;;;;;;;;;;;;26.50;101721.00;;;;2073438;28;1411;-62
2021/08/10 05:32:01;;;;;;;;;;;;;26.50;101726.00;;;;2074183;28;1052;-62
2021/08/10 05:33:01;;;;;;;;;;;;;26.40;101723.00;;;;2070049;28;1429;-63
2021/08/10 05:34:01;;;;;;;;;;;;;26.40;101714.00;;;;2078686;28;1075;-62
2021/08/10 05:35:01;;;;;;;;;;;;;26.40;101721.00;;;;2082026;28;1226;-63
2021/08/10 05:36:01;;;;;;;;;;;;;26.40;101714.00;;;;2078633;28;1236;-62
2021/08/10 05:37:02;;;;;;;;;;;;;26.40;101722.00;;;;2081787;28;1247;-62
2021/08/10 05:38:02;;;;;;;;;;;;;26.40;101725.00;;;;2085512;28;1457;-62
2021/08/10 05:39:03;;;;;;;;;;;;;26.30;101718.00;;;;2085712;28;1423;-63
2021/08/10 05:40:04;;;;;;;;;;;;;26.40;101725.00;;;;2081813;28;1318;-61
2021/08/10 05:41:04;;;;;;;;;;;;;26.30;101722.00;;;;2078625;28;1201;-64